createdAt,value
2018-09-06T00:01:03.149Z,23.00
2018-09-06T00:03:30.506Z,23.00
2018-09-06T00:05:57.808Z,22.90
2018-09-06T00:08:25.167Z,22.90
2018-09-06T00:10:52.563Z,22.80
2018-09-06T00:13:20.032Z,22.80
2018-09-06T00:15:47.562Z,22.80
2018-09-06T00:18:14.895Z,22.80
2018-09-06T00:20:42.206Z,22.70
2018-09-06T00:23:09.533Z,22.80
2018-09-06T00:25:37.282Z,22.70
2018-09-06T00:28:04.890Z,22.80
2018-09-06T00:30:32.213Z,22.80
2018-09-06T00:32:59.648Z,22.70
2018-09-06T00:35:26.999Z,22.70
2018-09-06T00:37:54.663Z,22.70
2018-09-06T00:40:21.982Z,22.70
2018-09-06T00:42:49.368Z,22.70
2018-09-06T00:45:16.767Z,22.70
2018-09-06T00:47:44.115Z,22.60
2018-09-06T00:50:15.630Z,22.60
2018-09-06T00:52:43.309Z,22.50
2018-09-06T00:55:10.649Z,22.40
2018-09-06T00:57:38.120Z,22.40
2018-09-06T01:00:05.491Z,22.30
2018-09-06T01:02:32.783Z,22.30
2018-09-06T01:05:00.109Z,22.10
2018-09-06T01:07:27.420Z,22.00
2018-09-06T01:09:54.715Z,21.80
2018-09-06T01:12:22.188Z,21.60
2018-09-06T01:14:49.510Z,21.50
2018-09-06T01:17:16.839Z,21.30
2018-09-06T01:19:44.477Z,21.20
2018-09-06T01:22:11.783Z,21.00
2018-09-06T01:24:39.171Z,20.90
2018-09-06T01:27:06.768Z,20.80
2018-09-06T01:29:34.059Z,20.70
2018-09-06T01:32:01.798Z,20.60
2018-09-06T01:34:29.175Z,20.50
2018-09-06T01:36:56.527Z,20.50
2018-09-06T01:39:23.819Z,20.40
2018-09-06T01:41:51.308Z,20.40
2018-09-06T01:44:18.634Z,20.40
2018-09-06T01:46:45.933Z,20.40
2018-09-06T01:49:13.295Z,20.40
2018-09-06T01:51:40.594Z,20.30
2018-09-06T01:54:07.923Z,20.40
2018-09-06T01:56:35.445Z,20.30
2018-09-06T01:59:02.782Z,20.30
2018-09-06T02:01:30.196Z,20.30
2018-09-06T02:03:57.524Z,20.30
2018-09-06T02:06:25.155Z,20.30
2018-09-06T02:08:52.554Z,20.30
2018-09-06T02:11:20.011Z,20.30
2018-09-06T02:13:47.683Z,20.30
2018-09-06T02:16:15.030Z,20.30
2018-09-06T02:18:42.343Z,20.40
2018-09-06T02:21:09.650Z,20.40
2018-09-06T02:23:37.008Z,20.40
2018-09-06T02:26:04.473Z,20.40
2018-09-06T02:28:31.802Z,20.40
2018-09-06T02:30:59.135Z,20.40
2018-09-06T02:33:26.491Z,20.40
2018-09-06T02:35:53.814Z,20.50
2018-09-06T02:38:21.139Z,20.50
2018-09-06T02:40:48.471Z,20.50
2018-09-06T02:43:15.814Z,20.50
2018-09-06T02:45:44.000Z,20.50
2018-09-06T02:48:11.355Z,20.40
2018-09-06T02:50:44.490Z,20.40
2018-09-06T02:53:12.016Z,20.40
2018-09-06T02:55:39.616Z,20.50
2018-09-06T02:58:06.954Z,20.50
2018-09-06T03:00:35.846Z,20.50
2018-09-06T03:03:03.170Z,20.50
2018-09-06T03:05:30.503Z,20.50
2018-09-06T03:07:58.767Z,20.50
2018-09-06T03:10:30.059Z,20.50
2018-09-06T03:12:57.375Z,20.50
2018-09-06T03:15:24.938Z,20.50
2018-09-06T03:17:52.251Z,20.50
2018-09-06T03:20:20.290Z,20.50
2018-09-06T03:22:47.604Z,20.50
2018-09-06T03:25:14.933Z,20.50
2018-09-06T03:27:42.232Z,20.50
2018-09-06T03:30:09.583Z,20.60
2018-09-06T03:32:36.966Z,20.60
2018-09-06T03:35:04.314Z,20.60
2018-09-06T03:37:32.035Z,20.60
2018-09-06T03:39:59.367Z,20.70
2018-09-06T03:42:26.682Z,20.70
2018-09-06T03:44:54.019Z,20.70
2018-09-06T03:47:21.331Z,20.70
2018-09-06T03:49:48.631Z,20.70
2018-09-06T03:52:15.960Z,20.70
2018-09-06T03:54:43.294Z,20.80
2018-09-06T03:57:10.567Z,20.80
2018-09-06T03:59:37.887Z,20.80
2018-09-06T04:02:05.203Z,20.80
2018-09-06T04:04:32.539Z,20.80
2018-09-06T04:06:59.872Z,20.80
2018-09-06T04:09:27.170Z,20.80
2018-09-06T04:11:54.489Z,20.80
2018-09-06T04:14:21.815Z,20.80
2018-09-06T04:16:49.221Z,20.80
2018-09-06T04:19:16.510Z,20.80
2018-09-06T04:21:43.901Z,20.80
2018-09-06T04:24:11.261Z,20.80
2018-09-06T04:26:38.532Z,20.80
2018-09-06T04:29:06.081Z,20.80
2018-09-06T04:31:33.395Z,20.80
2018-09-06T04:34:00.753Z,20.80
2018-09-06T04:36:28.073Z,20.80
2018-09-06T04:38:55.380Z,20.80
2018-09-06T04:41:22.711Z,20.80
2018-09-06T04:43:50.197Z,20.70
2018-09-06T04:46:17.473Z,20.70
2018-09-06T04:48:44.821Z,20.70
2018-09-06T04:51:12.163Z,20.70
2018-09-06T04:53:39.727Z,20.70
2018-09-06T04:56:07.034Z,20.70
2018-09-06T04:58:34.346Z,20.70
2018-09-06T05:01:01.699Z,20.70
2018-09-06T05:03:29.069Z,20.70
2018-09-06T05:05:56.365Z,20.70
2018-09-06T05:08:23.654Z,20.70
2018-09-06T05:10:50.972Z,20.70
2018-09-06T05:13:18.350Z,20.70
2018-09-06T05:15:45.826Z,20.70
2018-09-06T05:18:13.231Z,20.70
2018-09-06T05:20:40.564Z,20.80
2018-09-06T05:23:08.011Z,20.80
2018-09-06T05:25:35.431Z,20.80
2018-09-06T05:28:02.739Z,20.80
2018-09-06T05:30:30.058Z,20.90
2018-09-06T05:32:57.355Z,20.90
2018-09-06T05:35:24.635Z,20.90
2018-09-06T05:37:52.103Z,20.90
2018-09-06T05:40:19.469Z,21.00
2018-09-06T05:42:47.043Z,21.00
2018-09-06T05:45:14.346Z,21.00
2018-09-06T05:47:41.687Z,21.00
2018-09-06T05:50:08.982Z,21.10
2018-09-06T05:52:36.319Z,21.10
2018-09-06T05:55:03.623Z,21.10
2018-09-06T05:57:30.959Z,21.10
2018-09-06T05:59:58.299Z,21.20
2018-09-06T06:02:25.598Z,21.20
2018-09-06T06:04:52.966Z,21.20
2018-09-06T06:07:20.843Z,21.30
2018-09-06T06:09:48.257Z,21.30
2018-09-06T06:12:15.646Z,21.30
2018-09-06T06:14:42.958Z,21.40
2018-09-06T06:17:10.285Z,21.30
2018-09-06T06:19:37.636Z,21.40
2018-09-06T06:22:04.977Z,21.40
2018-09-06T06:24:32.303Z,21.40
2018-09-06T06:26:59.642Z,21.40
2018-09-06T06:29:26.978Z,21.40
2018-09-06T06:31:54.348Z,21.40
2018-09-06T06:34:21.599Z,21.50
2018-09-06T06:36:48.938Z,21.50
2018-09-06T06:39:16.324Z,21.50
2018-09-06T06:41:43.635Z,21.50
2018-09-06T06:44:11.211Z,21.60
2018-09-06T06:46:38.645Z,21.60
2018-09-06T06:49:06.409Z,21.60
2018-09-06T06:51:33.823Z,21.60
2018-09-06T06:54:01.180Z,21.70
2018-09-06T06:56:28.850Z,21.70
2018-09-06T06:58:56.169Z,21.80
2018-09-06T07:01:23.451Z,21.80
2018-09-06T07:03:50.797Z,21.90
2018-09-06T07:06:18.091Z,22.00
2018-09-06T07:08:45.627Z,22.00
2018-09-06T07:11:12.936Z,22.10
2018-09-06T07:13:40.249Z,22.20
2018-09-06T07:16:07.576Z,22.20
2018-09-06T07:18:34.990Z,22.30
2018-09-06T07:21:02.366Z,22.30
2018-09-06T07:23:29.670Z,22.40
2018-09-06T07:25:57.007Z,22.40
2018-09-06T07:28:24.312Z,22.50
2018-09-06T07:30:51.647Z,22.40
2018-09-06T07:33:18.971Z,22.40
2018-09-06T07:35:46.325Z,22.40
2018-09-06T07:38:13.651Z,22.30
2018-09-06T07:40:40.967Z,22.40
2018-09-06T07:43:08.275Z,22.30
2018-09-06T07:45:35.585Z,22.40
2018-09-06T07:48:02.887Z,22.40
2018-09-06T07:50:30.196Z,22.50
2018-09-06T07:52:57.477Z,22.60
2018-09-06T07:55:24.988Z,22.70
2018-09-06T07:57:52.356Z,22.70
2018-09-06T08:00:19.658Z,22.80
2018-09-06T08:02:47.059Z,22.90
2018-09-06T08:05:14.393Z,22.90
2018-09-06T08:07:41.712Z,23.00
2018-09-06T08:10:09.041Z,23.10
2018-09-06T08:12:36.355Z,23.00
2018-09-06T08:15:03.807Z,23.10
2018-09-06T08:17:31.162Z,23.10
2018-09-06T08:19:58.543Z,23.20
2018-09-06T08:22:25.864Z,23.20
2018-09-06T08:24:53.197Z,23.20
2018-09-06T08:27:20.536Z,23.20
2018-09-06T08:29:47.910Z,23.20
2018-09-06T08:32:15.255Z,23.20
2018-09-06T08:34:42.553Z,23.30
2018-09-06T08:37:09.855Z,23.30
2018-09-06T08:39:37.462Z,23.40
2018-09-06T08:42:04.807Z,23.50
2018-09-06T08:44:32.126Z,23.60
2018-09-06T08:46:59.432Z,23.70
2018-09-06T08:49:26.820Z,23.80
2018-09-06T08:51:54.177Z,23.80
2018-09-06T08:54:21.534Z,23.90
2018-09-06T08:56:48.851Z,24.00
2018-09-06T08:59:16.272Z,24.10
2018-09-06T09:01:43.726Z,24.10
2018-09-06T09:04:11.059Z,24.10
2018-09-06T09:06:38.793Z,24.00
2018-09-06T09:09:12.443Z,24.00
2018-09-06T09:11:39.943Z,24.00
2018-09-06T09:14:07.399Z,24.00
2018-09-06T09:16:35.000Z,23.90
2018-09-06T09:19:02.327Z,24.00
2018-09-06T09:21:29.730Z,24.00
2018-09-06T09:23:57.060Z,24.10
2018-09-06T09:26:24.395Z,24.10
2018-09-06T09:28:51.951Z,24.20
2018-09-06T09:31:19.248Z,24.20
2018-09-06T09:33:46.649Z,24.30
2018-09-06T09:36:13.972Z,24.40
2018-09-06T09:38:41.372Z,24.50
2018-09-06T09:41:08.687Z,24.50
2018-09-06T09:43:36.039Z,24.60
2018-09-06T09:48:30.336Z,24.70
2018-09-06T09:50:57.690Z,24.70
2018-09-06T09:53:25.046Z,24.80
2018-09-06T09:55:52.623Z,24.90
2018-09-06T09:58:19.932Z,24.90
2018-09-06T10:00:47.436Z,25.00
2018-09-06T10:03:20.571Z,25.00
2018-09-06T10:05:53.829Z,25.10
2018-09-06T10:08:26.966Z,25.20
2018-09-06T10:10:54.359Z,25.40
2018-09-06T10:13:21.754Z,25.40
2018-09-06T10:15:49.114Z,25.50
2018-09-06T10:18:16.573Z,25.70
2018-09-06T10:20:43.967Z,25.70
2018-09-06T10:23:11.873Z,25.80
2018-09-06T10:25:39.224Z,25.80
2018-09-06T10:28:06.635Z,25.90
2018-09-06T10:30:33.939Z,25.90
2018-09-06T10:33:01.348Z,26.10
2018-09-06T10:35:29.594Z,26.10
2018-09-06T10:37:56.815Z,26.20
2018-09-06T10:40:24.322Z,26.30
2018-09-06T10:42:51.670Z,26.30
2018-09-06T10:45:18.957Z,26.50
2018-09-06T10:47:46.420Z,26.50
2018-09-06T10:50:13.730Z,26.60
2018-09-06T10:52:41.103Z,26.70
2018-09-06T10:55:08.519Z,26.70
2018-09-06T10:57:35.938Z,26.80
2018-09-06T11:00:03.300Z,26.80
2018-09-06T11:02:30.751Z,26.80
2018-09-06T11:04:58.115Z,26.80
2018-09-06T11:07:25.465Z,26.80
2018-09-06T11:09:52.803Z,26.80
2018-09-06T11:12:20.315Z,26.80
2018-09-06T11:14:47.611Z,26.80
2018-09-06T11:17:14.976Z,26.80
2018-09-06T11:19:42.299Z,26.70
2018-09-06T11:22:09.716Z,26.70
2018-09-06T11:24:37.020Z,26.60
2018-09-06T11:27:04.313Z,26.50
2018-09-06T11:29:31.714Z,26.50
2018-09-06T11:31:59.085Z,26.30
2018-09-06T11:34:26.555Z,26.20
2018-09-06T11:36:53.943Z,26.10
2018-09-06T11:39:22.072Z,25.90
2018-09-06T11:41:49.475Z,25.80
2018-09-06T11:44:16.800Z,25.70
2018-09-06T11:46:44.143Z,25.60
2018-09-06T11:49:11.516Z,25.60
2018-09-06T11:51:39.083Z,25.50
2018-09-06T11:54:06.407Z,25.50
2018-09-06T11:56:33.746Z,25.40
2018-09-06T11:59:01.086Z,25.40
2018-09-06T12:01:28.484Z,25.40
2018-09-06T12:03:55.875Z,25.30
2018-09-06T12:06:23.264Z,25.30
2018-09-06T12:08:50.618Z,25.20
2018-09-06T12:11:18.203Z,25.20
2018-09-06T12:13:45.604Z,25.20
2018-09-06T12:16:12.848Z,25.10
2018-09-06T12:18:40.127Z,25.00
2018-09-06T12:21:07.496Z,24.90
2018-09-06T12:23:34.828Z,24.70
2018-09-06T12:26:02.171Z,24.60
2018-09-06T12:28:29.552Z,24.50
2018-09-06T12:30:57.129Z,24.40
2018-09-06T12:33:24.578Z,24.30
2018-09-06T12:35:51.947Z,24.20
2018-09-06T12:38:19.250Z,24.10
2018-09-06T12:40:46.794Z,24.00
2018-09-06T12:43:14.331Z,24.00
2018-09-06T12:45:41.688Z,23.90
2018-09-06T12:48:09.034Z,23.90
2018-09-06T12:50:36.411Z,23.90
2018-09-06T12:53:03.891Z,23.90
2018-09-06T12:55:31.227Z,23.80
2018-09-06T12:57:58.529Z,23.90
2018-09-06T13:00:25.875Z,23.90
2018-09-06T13:02:53.407Z,23.90
2018-09-06T13:05:20.737Z,23.90
2018-09-06T13:07:48.065Z,23.90
2018-09-06T13:10:15.405Z,24.00
2018-09-06T13:12:42.719Z,24.00
2018-09-06T13:15:10.035Z,24.00
2018-09-06T13:17:37.371Z,24.00
2018-09-06T13:20:05.839Z,24.00
2018-09-06T13:22:33.203Z,24.00
2018-09-06T13:25:00.563Z,23.90
2018-09-06T13:27:27.896Z,23.90
2018-09-06T13:29:55.232Z,23.80
2018-09-06T13:32:22.520Z,23.60
2018-09-06T13:34:49.823Z,23.50
2018-09-06T13:37:17.130Z,23.40
2018-09-06T13:39:44.454Z,23.20
2018-09-06T13:42:11.765Z,23.10
2018-09-06T13:44:39.089Z,23.00
2018-09-06T13:47:06.564Z,22.90
2018-09-06T13:49:33.930Z,22.80
2018-09-06T13:52:01.308Z,22.80
2018-09-06T13:54:28.860Z,22.80
2018-09-06T13:56:56.229Z,22.90
2018-09-06T13:59:23.572Z,22.90
2018-09-06T14:01:50.912Z,23.00
2018-09-06T14:04:18.248Z,23.10
2018-09-06T14:06:45.573Z,23.10
2018-09-06T14:09:12.900Z,23.20
2018-09-06T14:11:40.255Z,23.20
2018-09-06T14:14:08.117Z,23.30
2018-09-06T14:16:35.586Z,23.30
2018-09-06T14:19:02.905Z,23.20
2018-09-06T14:21:30.194Z,23.30
2018-09-06T14:23:57.601Z,23.30
2018-09-06T14:26:24.915Z,23.30
2018-09-06T14:28:52.231Z,23.40
2018-09-06T14:31:19.699Z,23.40
2018-09-06T14:33:47.078Z,23.40
2018-09-06T14:36:14.631Z,23.30
2018-09-06T14:38:42.071Z,23.30
2018-09-06T14:41:09.476Z,23.30
2018-09-06T14:43:36.804Z,23.20
2018-09-06T14:46:04.103Z,23.30
2018-09-06T14:48:31.419Z,23.20
2018-09-06T14:50:58.827Z,23.20
2018-09-06T14:53:26.181Z,23.20
2018-09-06T14:55:54.107Z,23.20
2018-09-06T14:58:21.425Z,23.20
2018-09-06T15:00:48.769Z,23.20
2018-09-06T15:03:16.103Z,23.20
2018-09-06T15:05:43.486Z,23.30
2018-09-06T15:08:10.847Z,23.30
2018-09-06T15:10:38.151Z,23.30
2018-09-06T15:13:05.707Z,23.30
2018-09-06T15:15:33.029Z,23.30
2018-09-06T15:18:00.329Z,23.40
2018-09-06T15:20:27.665Z,23.40
2018-09-06T15:22:55.023Z,23.50
2018-09-06T15:25:22.605Z,23.50
2018-09-06T15:27:50.146Z,23.60
2018-09-06T15:30:17.468Z,23.70
2018-09-06T15:32:44.755Z,23.70
2018-09-06T15:35:12.170Z,23.80
2018-09-06T15:37:39.577Z,23.70
2018-09-06T15:40:06.939Z,23.70
2018-09-06T15:42:34.337Z,23.60
2018-09-06T15:45:01.683Z,23.50
2018-09-06T15:47:29.013Z,23.50
2018-09-06T15:49:56.359Z,23.40
2018-09-06T15:52:23.651Z,23.30
2018-09-06T15:54:57.786Z,23.20
2018-09-06T15:57:25.063Z,23.20
2018-09-06T15:59:52.352Z,23.10
2018-09-06T16:02:20.175Z,23.10
2018-09-06T16:04:48.582Z,23.10
2018-09-06T16:07:15.900Z,23.00
2018-09-06T16:09:43.256Z,23.00
2018-09-06T16:12:10.597Z,23.00
2018-09-06T16:14:37.973Z,23.00
2018-09-06T16:17:12.016Z,22.90
2018-09-06T16:19:39.359Z,22.80
2018-09-06T16:22:06.692Z,22.80
2018-09-06T16:24:34.080Z,22.70
2018-09-06T16:27:01.325Z,22.60
2018-09-06T16:29:28.623Z,22.60
2018-09-06T16:31:55.919Z,22.50
2018-09-06T16:34:23.324Z,22.50
2018-09-06T16:36:50.655Z,22.50
2018-09-06T16:39:18.011Z,22.60
2018-09-06T16:41:45.352Z,22.60
2018-09-06T16:44:12.642Z,22.60
2018-09-06T16:46:39.920Z,22.50
2018-09-06T16:49:07.250Z,22.50
2018-09-06T16:51:34.584Z,22.40
2018-09-06T16:54:01.897Z,22.40
2018-09-06T16:56:29.211Z,22.30
2018-09-06T16:58:56.526Z,22.30
2018-09-06T17:01:23.815Z,22.20
2018-09-06T17:03:52.015Z,22.20
2018-09-06T17:06:19.320Z,22.10
2018-09-06T17:08:46.636Z,22.00
2018-09-06T17:11:13.965Z,22.00
2018-09-06T17:13:41.285Z,22.00
2018-09-06T17:16:09.277Z,22.00
2018-09-06T17:18:36.859Z,21.90
2018-09-06T17:21:04.204Z,21.80
2018-09-06T17:23:31.523Z,21.80
2018-09-06T17:25:59.007Z,21.70
2018-09-06T17:28:26.287Z,21.70
2018-09-06T17:30:53.599Z,21.60
2018-09-06T17:33:21.098Z,21.60
2018-09-06T17:35:48.387Z,21.50
2018-09-06T17:38:15.712Z,21.50
2018-09-06T17:40:43.016Z,21.50
2018-09-06T17:43:10.360Z,21.40
2018-09-06T17:45:37.819Z,21.40
2018-09-06T17:48:05.421Z,21.40
2018-09-06T17:50:32.774Z,21.40
2018-09-06T17:53:00.136Z,21.30
2018-09-06T17:55:27.484Z,21.20
2018-09-06T17:57:54.795Z,21.20
2018-09-06T18:00:28.776Z,21.10
2018-09-06T18:02:56.113Z,21.00
2018-09-06T18:05:23.439Z,21.00
2018-09-06T18:07:50.764Z,20.90
2018-09-06T18:10:18.103Z,20.80
2018-09-06T18:12:45.730Z,20.70
2018-09-06T18:15:13.108Z,20.70
2018-09-06T18:17:40.557Z,20.60
2018-09-06T18:20:07.798Z,20.60
2018-09-06T18:22:35.183Z,20.50
2018-09-06T18:25:02.668Z,20.50
2018-09-06T18:27:30.136Z,20.40
2018-09-06T18:29:57.623Z,20.30
2018-09-06T18:32:25.027Z,20.30
2018-09-06T18:34:52.356Z,20.20
2018-09-06T18:37:20.024Z,20.20
2018-09-06T18:39:47.430Z,20.10
2018-09-06T18:42:14.753Z,20.10
2018-09-06T18:44:42.107Z,20.00
2018-09-06T18:47:09.481Z,20.00
2018-09-06T18:49:36.859Z,19.90
2018-09-06T18:52:04.235Z,19.90
2018-09-06T18:54:31.577Z,19.90
2018-09-06T18:56:59.320Z,19.80
2018-09-06T18:59:26.828Z,19.80
2018-09-06T19:01:54.198Z,19.80
2018-09-06T19:04:21.481Z,19.70
2018-09-06T19:06:48.803Z,19.70
2018-09-06T19:09:16.196Z,19.60
2018-09-06T19:11:43.785Z,19.70
2018-09-06T19:14:11.097Z,19.60
2018-09-06T19:16:38.544Z,19.50
2018-09-06T19:19:05.958Z,19.50
2018-09-06T19:21:33.659Z,19.50
2018-09-06T19:24:01.100Z,19.50
2018-09-06T19:26:28.475Z,19.40
2018-09-06T19:28:55.862Z,19.40
2018-09-06T19:31:23.200Z,19.30
2018-09-06T19:33:50.581Z,19.30
2018-09-06T19:36:18.005Z,19.30
2018-09-06T19:38:45.341Z,19.20
2018-09-06T19:41:12.636Z,19.20
2018-09-06T19:43:40.035Z,19.20
2018-09-06T19:46:07.379Z,19.20
2018-09-06T19:51:13.840Z,19.10
2018-09-06T19:53:41.178Z,19.10
2018-09-06T19:56:08.504Z,19.10
2018-09-06T19:58:35.811Z,19.00
2018-09-06T20:01:03.119Z,19.00
2018-09-06T20:03:30.531Z,19.00
2018-09-06T20:05:57.879Z,19.00
2018-09-06T20:08:25.246Z,19.00
2018-09-06T20:10:52.563Z,19.00
2018-09-06T20:13:19.932Z,19.00
2018-09-06T20:15:47.249Z,19.00
2018-09-06T20:18:14.597Z,19.00
2018-09-06T20:20:42.014Z,19.00
2018-09-06T20:23:09.356Z,19.00
2018-09-06T20:25:36.775Z,19.00
2018-09-06T20:28:04.511Z,19.00
2018-09-06T20:30:31.668Z,19.00
2018-09-06T20:32:59.074Z,19.00
2018-09-06T20:35:26.375Z,19.10
2018-09-06T20:37:53.677Z,19.10
2018-09-06T20:40:20.975Z,19.00
2018-09-06T20:42:48.275Z,19.10
2018-09-06T20:45:15.568Z,19.00
2018-09-06T20:47:42.902Z,19.00
2018-09-06T20:50:10.221Z,19.00
2018-09-06T20:52:37.623Z,19.00
2018-09-06T20:55:04.971Z,19.00
2018-09-06T20:57:32.552Z,19.00
2018-09-06T21:00:00.406Z,18.90
2018-09-06T21:02:32.346Z,18.90
2018-09-06T21:04:59.755Z,18.90
2018-09-06T21:07:27.110Z,18.90
2018-09-06T21:09:54.508Z,18.90
2018-09-06T21:12:22.101Z,18.90
2018-09-06T21:14:49.441Z,19.00
2018-09-06T21:17:16.771Z,19.00
2018-09-06T21:19:44.323Z,19.00
2018-09-06T21:22:11.712Z,19.10
2018-09-06T21:24:39.039Z,19.10
2018-09-06T21:27:06.640Z,19.10
2018-09-06T21:29:33.983Z,19.10
2018-09-06T21:32:01.485Z,19.10
2018-09-06T21:34:29.002Z,19.10
2018-09-06T21:36:56.396Z,19.10
2018-09-06T21:39:23.744Z,19.10
2018-09-06T21:41:51.107Z,19.00
2018-09-06T21:44:18.429Z,19.00
2018-09-06T21:46:45.820Z,19.00
2018-09-06T21:49:13.173Z,18.90
2018-09-06T21:51:40.705Z,18.90
2018-09-06T21:54:08.074Z,18.90
2018-09-06T21:56:35.376Z,18.90
2018-09-06T21:59:02.707Z,18.90
2018-09-06T22:01:30.021Z,18.80
2018-09-06T22:04:00.603Z,18.90
2018-09-06T22:06:28.032Z,18.90
2018-09-06T22:08:55.556Z,18.90
2018-09-06T22:11:22.900Z,18.90
2018-09-06T22:13:50.267Z,19.00
2018-09-06T22:16:17.701Z,19.00
2018-09-06T22:18:45.143Z,19.00
2018-09-06T22:21:12.506Z,19.10
2018-09-06T22:23:39.847Z,19.10
2018-09-06T22:26:07.220Z,19.10
2018-09-06T22:28:34.520Z,19.10
2018-09-06T22:31:02.237Z,19.20
2018-09-06T22:33:29.825Z,19.20
2018-09-06T22:35:57.228Z,19.20
2018-09-06T22:38:24.550Z,19.20
2018-09-06T22:40:52.026Z,19.20
2018-09-06T22:43:19.400Z,19.30
2018-09-06T22:45:46.767Z,19.30
2018-09-06T22:48:14.192Z,19.30
2018-09-06T22:50:41.570Z,19.30
2018-09-06T22:53:08.878Z,19.40
2018-09-06T22:55:36.421Z,19.40
2018-09-06T22:58:03.787Z,19.30
2018-09-06T23:00:31.560Z,19.30
2018-09-06T23:03:04.699Z,19.40
2018-09-06T23:05:32.902Z,19.40
2018-09-06T23:08:00.779Z,19.30
2018-09-06T23:10:28.439Z,19.30
2018-09-06T23:12:55.764Z,19.30
2018-09-06T23:15:23.123Z,19.30
2018-09-06T23:17:50.472Z,19.20
2018-09-06T23:20:17.857Z,19.20
2018-09-06T23:22:45.250Z,19.10
2018-09-06T23:25:12.584Z,19.10
2018-09-06T23:27:40.014Z,19.00
2018-09-06T23:30:07.355Z,19.00
2018-09-06T23:32:34.710Z,18.90
2018-09-06T23:35:02.035Z,18.90
2018-09-06T23:37:29.339Z,18.80
2018-09-06T23:39:56.674Z,18.70
2018-09-06T23:42:24.815Z,18.70
2018-09-06T23:44:53.236Z,18.70
2018-09-06T23:47:20.646Z,18.70
2018-09-06T23:49:48.255Z,18.60
2018-09-06T23:52:15.840Z,18.60
2018-09-06T23:54:43.373Z,18.50
2018-09-06T23:57:10.703Z,18.50
2018-09-06T23:59:38.365Z,18.40
